createdAt,value
2018-10-03T00:00:41.712Z,7.60
2018-10-03T00:03:10.003Z,7.70
2018-10-03T00:05:38.154Z,7.80
2018-10-03T00:08:06.286Z,7.80
2018-10-03T00:10:34.464Z,7.80
2018-10-03T00:13:02.570Z,7.80
2018-10-03T00:15:30.733Z,7.80
2018-10-03T00:17:58.823Z,7.80
2018-10-03T00:20:26.931Z,7.90
2018-10-03T00:22:55.019Z,7.80
2018-10-03T00:25:23.318Z,7.90
2018-10-03T00:27:51.654Z,7.80
2018-10-03T00:30:19.787Z,7.90
2018-10-03T00:32:48.162Z,8.00
2018-10-03T00:35:16.494Z,8.10
2018-10-03T00:37:44.688Z,8.10
2018-10-03T00:40:13.046Z,8.00
2018-10-03T00:42:41.342Z,8.10
2018-10-03T00:45:09.430Z,8.10
2018-10-03T00:47:37.546Z,8.10
2018-10-03T00:50:36.588Z,8.20
2018-10-03T00:53:04.750Z,8.20
2018-10-03T00:55:33.639Z,8.20
2018-10-03T00:58:01.822Z,8.20
2018-10-03T01:00:29.983Z,8.30
2018-10-03T01:02:58.123Z,8.30
2018-10-03T01:05:26.170Z,8.30
2018-10-03T01:07:54.492Z,8.30
2018-10-03T01:10:22.758Z,8.40
2018-10-03T01:12:50.856Z,8.30
2018-10-03T01:15:20.250Z,8.20
2018-10-03T01:17:48.499Z,8.00
2018-10-03T01:20:16.672Z,7.90
2018-10-03T01:22:44.782Z,7.60
2018-10-03T01:25:13.103Z,7.40
2018-10-03T01:27:41.251Z,7.30
2018-10-03T01:30:09.481Z,7.30
2018-10-03T01:32:37.531Z,7.30
2018-10-03T01:35:05.917Z,7.30
2018-10-03T01:37:33.950Z,7.30
2018-10-03T01:40:02.084Z,7.50
2018-10-03T01:42:30.350Z,7.60
2018-10-03T01:44:58.810Z,7.70
2018-10-03T01:47:27.695Z,7.80
2018-10-03T01:49:55.774Z,7.80
2018-10-03T01:52:23.975Z,7.80
2018-10-03T01:54:52.150Z,7.80
2018-10-03T01:57:20.352Z,7.90
2018-10-03T01:59:48.486Z,7.90
2018-10-03T02:02:16.607Z,7.90
2018-10-03T02:04:44.862Z,8.00
2018-10-03T02:07:13.308Z,7.90
2018-10-03T02:09:41.372Z,8.00
2018-10-03T02:12:09.447Z,7.90
2018-10-03T02:14:37.820Z,8.00
2018-10-03T02:17:06.023Z,8.10
2018-10-03T02:19:34.103Z,8.00
2018-10-03T02:22:02.518Z,8.10
2018-10-03T02:24:30.651Z,8.10
2018-10-03T02:26:58.846Z,8.20
2018-10-03T02:29:27.010Z,8.10
2018-10-03T02:31:55.092Z,8.10
2018-10-03T02:34:23.269Z,8.10
2018-10-03T02:36:51.487Z,8.10
2018-10-03T02:39:20.268Z,8.20
2018-10-03T02:41:48.421Z,8.20
2018-10-03T02:44:16.656Z,8.20
2018-10-03T02:46:44.697Z,8.20
2018-10-03T02:49:12.861Z,8.30
2018-10-03T02:51:40.967Z,8.30
2018-10-03T02:54:09.112Z,8.30
2018-10-03T02:56:37.182Z,8.30
2018-10-03T02:59:05.399Z,8.30
2018-10-03T03:01:33.660Z,8.30
2018-10-03T03:04:01.757Z,8.40
2018-10-03T03:06:29.959Z,8.40
2018-10-03T03:08:58.279Z,8.40
2018-10-03T03:11:26.445Z,8.50
2018-10-03T03:13:54.750Z,8.50
2018-10-03T03:16:22.942Z,8.50
2018-10-03T03:18:51.105Z,8.50
2018-10-03T03:21:19.300Z,8.50
2018-10-03T03:23:47.418Z,8.50
2018-10-03T03:26:15.551Z,8.50
2018-10-03T03:28:43.768Z,8.40
2018-10-03T03:31:13.604Z,8.40
2018-10-03T03:33:41.678Z,8.50
2018-10-03T03:36:11.115Z,8.50
2018-10-03T03:38:39.399Z,8.50
2018-10-03T03:41:07.643Z,8.50
2018-10-03T03:43:35.708Z,8.60
2018-10-03T03:46:03.925Z,8.50
2018-10-03T03:48:32.198Z,8.50
2018-10-03T03:51:00.391Z,8.50
2018-10-03T03:53:28.468Z,8.60
2018-10-03T03:55:56.610Z,8.50
2018-10-03T03:58:24.693Z,8.60
2018-10-03T04:00:52.906Z,8.50
2018-10-03T04:03:21.086Z,8.50
2018-10-03T04:05:49.202Z,8.60
2018-10-03T04:08:18.011Z,8.60
2018-10-03T04:10:47.058Z,8.60
2018-10-03T04:13:15.191Z,8.50
2018-10-03T04:15:43.360Z,8.50
2018-10-03T04:18:11.489Z,8.50
2018-10-03T04:20:39.638Z,8.50
2018-10-03T04:23:07.798Z,8.40
2018-10-03T04:25:35.870Z,8.50
2018-10-03T04:28:04.139Z,8.50
2018-10-03T04:30:32.178Z,8.40
2018-10-03T04:33:00.328Z,8.40
2018-10-03T04:35:28.444Z,8.40
2018-10-03T04:37:56.487Z,8.50
2018-10-03T04:40:24.874Z,8.40
2018-10-03T04:42:52.952Z,8.50
2018-10-03T04:45:21.186Z,8.40
2018-10-03T04:47:49.435Z,8.40
2018-10-03T04:50:18.285Z,8.30
2018-10-03T04:52:46.473Z,8.30
2018-10-03T04:55:15.139Z,8.40
2018-10-03T04:57:43.382Z,8.40
2018-10-03T05:00:11.642Z,8.40
2018-10-03T05:03:42.650Z,8.50
2018-10-03T05:06:10.839Z,8.50
2018-10-03T05:08:38.951Z,8.50
2018-10-03T05:11:07.087Z,8.60
2018-10-03T05:13:35.291Z,8.60
2018-10-03T05:16:03.442Z,8.60
2018-10-03T05:18:31.596Z,8.60
2018-10-03T05:20:59.718Z,8.60
2018-10-03T05:23:28.774Z,8.60
2018-10-03T05:25:56.927Z,8.60
2018-10-03T05:28:25.064Z,8.60
2018-10-03T05:30:53.378Z,8.70
2018-10-03T05:33:21.606Z,8.60
2018-10-03T05:35:49.762Z,8.70
2018-10-03T05:38:17.856Z,8.70
2018-10-03T05:40:46.855Z,8.80
2018-10-03T05:43:15.031Z,8.80
2018-10-03T05:45:43.458Z,8.70
2018-10-03T05:48:12.270Z,8.80
2018-10-03T05:50:40.331Z,8.80
2018-10-03T05:53:08.732Z,8.80
2018-10-03T05:55:36.871Z,8.90
2018-10-03T05:58:04.966Z,8.90
2018-10-03T06:00:33.882Z,8.90
2018-10-03T06:03:02.503Z,8.90
2018-10-03T06:05:30.657Z,8.90
2018-10-03T06:07:59.722Z,9.00
2018-10-03T06:10:28.007Z,9.00
2018-10-03T06:12:56.235Z,9.00
2018-10-03T06:15:24.376Z,9.10
2018-10-03T06:17:52.554Z,9.10
2018-10-03T06:20:20.798Z,8.90
2018-10-03T06:22:48.970Z,8.30
2018-10-03T06:25:17.074Z,7.90
2018-10-03T06:27:45.975Z,7.80
2018-10-03T06:30:14.183Z,7.60
2018-10-03T06:32:42.349Z,7.70
2018-10-03T06:35:10.562Z,7.70
2018-10-03T06:37:38.787Z,7.70
2018-10-03T06:40:07.185Z,7.70
2018-10-03T06:42:35.423Z,7.70
2018-10-03T06:45:03.662Z,7.80
2018-10-03T06:47:31.818Z,7.80
2018-10-03T06:50:00.000Z,7.90
2018-10-03T06:52:28.144Z,8.00
2018-10-03T06:54:57.090Z,8.00
2018-10-03T06:57:25.214Z,8.00
2018-10-03T06:59:53.413Z,7.90
2018-10-03T07:02:22.563Z,7.90
2018-10-03T07:04:50.696Z,7.90
2018-10-03T07:07:18.956Z,7.70
2018-10-03T07:09:47.001Z,7.60
2018-10-03T07:12:15.106Z,7.60
2018-10-03T07:14:43.267Z,7.70
2018-10-03T07:17:11.451Z,7.70
2018-10-03T07:19:39.529Z,7.90
2018-10-03T07:22:07.667Z,8.00
2018-10-03T07:24:35.824Z,8.20
2018-10-03T07:27:05.443Z,8.20
2018-10-03T07:29:33.970Z,8.40
2018-10-03T07:32:02.662Z,8.40
2018-10-03T07:34:30.814Z,8.50
2018-10-03T07:36:58.875Z,8.60
2018-10-03T07:39:27.138Z,8.70
2018-10-03T07:41:55.320Z,8.70
2018-10-03T07:44:23.427Z,8.70
2018-10-03T07:46:51.574Z,9.10
2018-10-03T07:49:19.631Z,9.20
2018-10-03T07:51:47.846Z,9.20
2018-10-03T07:54:16.206Z,9.00
2018-10-03T07:56:44.548Z,8.90
2018-10-03T07:59:12.732Z,9.00
2018-10-03T08:01:40.943Z,9.00
2018-10-03T08:04:09.807Z,9.00
2018-10-03T08:06:38.059Z,9.10
2018-10-03T08:09:07.254Z,9.00
2018-10-03T08:11:37.128Z,9.00
2018-10-03T08:14:05.327Z,9.10
2018-10-03T08:16:33.764Z,9.10
2018-10-03T08:19:02.290Z,9.30
2018-10-03T08:21:30.533Z,9.30
2018-10-03T08:23:58.712Z,9.40
2018-10-03T08:26:26.986Z,9.60
2018-10-03T08:28:55.174Z,9.60
2018-10-03T08:31:23.366Z,9.60
2018-10-03T08:33:51.421Z,9.40
2018-10-03T08:36:19.630Z,9.30
2018-10-03T08:38:47.868Z,9.10
2018-10-03T08:41:15.892Z,9.20
2018-10-03T08:43:44.095Z,9.30
2018-10-03T08:46:12.245Z,9.40
2018-10-03T08:48:40.284Z,9.50
2018-10-03T08:51:08.978Z,9.60
2018-10-03T08:53:37.140Z,9.60
2018-10-03T08:56:05.287Z,9.50
2018-10-03T08:58:33.503Z,9.50
2018-10-03T09:01:01.551Z,9.50
2018-10-03T09:03:29.905Z,9.50
2018-10-03T09:05:58.007Z,9.70
2018-10-03T09:08:26.139Z,9.60
2018-10-03T09:10:54.559Z,9.30
2018-10-03T09:13:22.661Z,9.30
2018-10-03T09:15:50.699Z,9.30
2018-10-03T09:18:18.717Z,9.30
2018-10-03T09:20:47.556Z,9.30
2018-10-03T09:23:15.802Z,9.60
2018-10-03T09:25:43.937Z,9.80
2018-10-03T09:28:11.994Z,9.80
2018-10-03T09:30:40.022Z,9.80
2018-10-03T09:33:08.109Z,10.00
2018-10-03T09:35:36.247Z,10.00
2018-10-03T09:38:04.381Z,10.20
2018-10-03T09:40:32.699Z,10.20
2018-10-03T09:43:00.930Z,10.20
2018-10-03T09:45:29.062Z,10.10
2018-10-03T09:47:57.266Z,10.00
2018-10-03T09:50:25.419Z,10.00
2018-10-03T09:52:54.671Z,10.10
2018-10-03T09:55:22.986Z,10.00
2018-10-03T09:57:51.074Z,9.90
2018-10-03T10:00:24.587Z,9.90
2018-10-03T10:02:52.661Z,9.80
2018-10-03T10:05:20.808Z,9.90
2018-10-03T10:07:49.077Z,10.10
2018-10-03T10:10:17.241Z,10.10
2018-10-03T10:12:45.306Z,9.90
2018-10-03T10:15:13.415Z,9.90
2018-10-03T10:17:41.563Z,9.70
2018-10-03T10:20:09.663Z,9.60
2018-10-03T10:22:37.939Z,9.80
2018-10-03T10:25:06.002Z,10.00
2018-10-03T10:27:34.194Z,10.20
2018-10-03T10:30:02.562Z,10.10
2018-10-03T10:32:30.630Z,9.90
2018-10-03T10:34:59.851Z,9.70
2018-10-03T10:37:28.043Z,9.60
2018-10-03T10:39:56.165Z,9.60
2018-10-03T10:42:24.314Z,9.70
2018-10-03T10:44:52.440Z,9.90
2018-10-03T10:47:20.522Z,10.00
2018-10-03T10:49:49.363Z,9.90
2018-10-03T10:52:17.519Z,10.00
2018-10-03T10:54:45.697Z,10.10
2018-10-03T10:57:13.791Z,10.10
2018-10-03T10:59:42.301Z,10.20
2018-10-03T11:02:10.569Z,10.00
2018-10-03T11:04:38.710Z,9.80
2018-10-03T11:07:07.054Z,9.80
2018-10-03T11:09:35.176Z,9.90
2018-10-03T11:12:03.466Z,9.70
2018-10-03T11:14:31.599Z,9.70
2018-10-03T11:16:59.774Z,10.00
2018-10-03T11:19:27.846Z,10.10
2018-10-03T11:21:56.034Z,10.10
2018-10-03T11:24:24.422Z,10.20
2018-10-03T11:26:52.511Z,10.00
2018-10-03T11:29:20.552Z,9.70
2018-10-03T11:31:48.764Z,9.70
2018-10-03T11:34:16.994Z,10.20
2018-10-03T11:36:45.811Z,10.40
2018-10-03T11:39:13.969Z,10.40
2018-10-03T11:41:42.034Z,10.50
2018-10-03T11:44:10.519Z,10.80
2018-10-03T11:46:39.817Z,10.50
2018-10-03T11:49:09.265Z,10.40
2018-10-03T11:51:37.642Z,10.20
2018-10-03T11:54:06.017Z,9.90
2018-10-03T11:56:34.509Z,9.90
2018-10-03T11:59:02.768Z,10.10
2018-10-03T12:01:31.758Z,9.90
2018-10-03T12:03:59.910Z,9.80
2018-10-03T12:06:28.141Z,10.00
2018-10-03T12:08:56.410Z,9.90
2018-10-03T12:11:24.437Z,9.80
2018-10-03T12:13:52.451Z,9.40
2018-10-03T12:16:20.678Z,9.70
2018-10-03T12:18:49.883Z,9.80
2018-10-03T12:21:17.966Z,9.50
2018-10-03T12:23:46.167Z,9.40
2018-10-03T12:26:14.365Z,9.90
2018-10-03T12:28:42.522Z,10.10
2018-10-03T12:31:10.639Z,9.80
2018-10-03T12:33:38.825Z,9.80
2018-10-03T12:36:07.047Z,10.00
2018-10-03T12:38:35.095Z,10.00
2018-10-03T12:41:03.334Z,9.90
2018-10-03T12:43:31.431Z,9.80
2018-10-03T12:45:59.624Z,9.80
2018-10-03T12:48:27.840Z,9.80
2018-10-03T12:50:56.099Z,9.50
2018-10-03T12:53:24.159Z,9.70
2018-10-03T12:55:52.407Z,9.80
2018-10-03T12:58:20.654Z,9.60
2018-10-03T13:00:48.714Z,9.70
2018-10-03T13:03:16.926Z,9.50
2018-10-03T13:05:45.038Z,9.60
2018-10-03T13:08:13.137Z,9.40
2018-10-03T13:10:41.270Z,9.90
2018-10-03T13:13:09.849Z,9.40
2018-10-03T13:15:38.143Z,9.60
2018-10-03T13:18:06.256Z,9.40
2018-10-03T13:20:34.315Z,9.70
2018-10-03T13:23:02.520Z,9.40
2018-10-03T13:25:30.865Z,9.50
2018-10-03T13:27:59.335Z,9.70
2018-10-03T13:30:27.372Z,9.70
2018-10-03T13:32:55.678Z,9.60
2018-10-03T13:35:24.602Z,9.60
2018-10-03T13:37:52.814Z,9.40
2018-10-03T13:40:20.931Z,9.40
2018-10-03T13:42:49.566Z,9.10
2018-10-03T13:45:17.710Z,9.00
2018-10-03T13:47:45.822Z,9.20
2018-10-03T13:50:14.005Z,8.90
2018-10-03T13:52:42.226Z,8.70
2018-10-03T13:55:10.329Z,8.70
2018-10-03T13:57:38.408Z,9.00
2018-10-03T14:00:06.873Z,9.20
2018-10-03T14:02:34.948Z,9.30
2018-10-03T14:05:03.314Z,9.00
2018-10-03T14:07:31.515Z,8.90
2018-10-03T14:10:00.370Z,8.80
2018-10-03T14:12:29.153Z,9.10
2018-10-03T14:14:57.402Z,8.90
2018-10-03T14:17:25.484Z,9.10
2018-10-03T14:19:53.595Z,8.80
2018-10-03T14:22:21.835Z,8.70
2018-10-03T14:24:49.943Z,8.60
2018-10-03T14:27:18.017Z,8.90
2018-10-03T14:29:46.216Z,8.90
2018-10-03T14:32:14.974Z,8.80
2018-10-03T14:34:43.064Z,8.60
2018-10-03T14:37:11.349Z,9.00
2018-10-03T14:39:39.524Z,9.10
2018-10-03T14:42:07.708Z,9.00
2018-10-03T14:44:35.842Z,9.10
2018-10-03T14:47:03.928Z,8.80
2018-10-03T14:49:32.140Z,8.90
2018-10-03T14:52:00.548Z,8.60
2018-10-03T14:54:28.562Z,8.80
2018-10-03T14:56:56.826Z,8.60
2018-10-03T14:59:24.913Z,8.70
2018-10-03T15:01:53.618Z,8.70
2018-10-03T15:04:21.722Z,8.70
2018-10-03T15:06:49.874Z,8.60
2018-10-03T15:09:17.931Z,8.60
2018-10-03T15:11:45.968Z,8.50
2018-10-03T15:14:14.076Z,8.30
2018-10-03T15:16:42.265Z,8.30
2018-10-03T15:19:10.596Z,8.10
2018-10-03T15:21:38.827Z,7.90
2018-10-03T15:24:07.033Z,8.10
2018-10-03T15:26:35.243Z,8.00
2018-10-03T15:29:03.316Z,7.90
2018-10-03T15:31:31.662Z,7.80
2018-10-03T15:33:59.770Z,8.10
2018-10-03T15:36:27.918Z,8.00
2018-10-03T15:38:56.086Z,8.00
2018-10-03T15:41:24.278Z,7.80
2018-10-03T15:43:52.545Z,7.70
2018-10-03T15:46:20.749Z,7.70
2018-10-03T15:48:48.906Z,7.60
2018-10-03T15:51:17.128Z,7.70
2018-10-03T15:53:46.222Z,7.50
2018-10-03T15:56:14.170Z,7.50
2018-10-03T15:58:42.194Z,7.60
2018-10-03T16:01:11.058Z,7.50
2018-10-03T16:03:40.066Z,7.20
2018-10-03T16:06:08.295Z,7.20
2018-10-03T16:08:36.459Z,7.30
2018-10-03T16:11:05.238Z,7.30
2018-10-03T16:13:34.227Z,7.10
2018-10-03T16:16:02.340Z,7.10
2018-10-03T16:18:30.511Z,6.90
2018-10-03T16:20:59.399Z,6.80
2018-10-03T16:23:29.494Z,6.90
2018-10-03T16:25:57.654Z,6.90
2018-10-03T16:28:25.775Z,6.90
2018-10-03T16:30:54.795Z,6.80
2018-10-03T16:33:23.025Z,6.80
2018-10-03T16:35:51.308Z,6.80
2018-10-03T16:38:19.326Z,6.70
2018-10-03T16:40:47.444Z,6.60
2018-10-03T16:43:15.754Z,6.70
2018-10-03T16:45:43.841Z,6.70
2018-10-03T16:48:12.191Z,6.60
2018-10-03T16:50:40.299Z,6.60
2018-10-03T16:53:08.591Z,6.60
2018-10-03T16:55:36.763Z,6.60
2018-10-03T16:58:05.642Z,6.60
2018-10-03T17:00:33.849Z,6.50
2018-10-03T17:04:04.970Z,6.50
2018-10-03T17:06:33.047Z,6.40
2018-10-03T17:09:01.160Z,6.50
2018-10-03T17:11:29.448Z,6.40
2018-10-03T17:14:06.871Z,6.40
2018-10-03T17:16:35.058Z,6.40
2018-10-03T17:19:03.935Z,6.30
2018-10-03T17:21:32.047Z,6.30
2018-10-03T17:24:00.826Z,6.30
2018-10-03T17:26:28.874Z,6.30
2018-10-03T17:28:56.976Z,6.20
2018-10-03T17:31:25.122Z,6.20
2018-10-03T17:33:53.431Z,6.20
2018-10-03T17:36:21.542Z,6.10
2018-10-03T17:38:49.640Z,6.10
2018-10-03T17:41:17.783Z,6.10
2018-10-03T17:43:46.009Z,6.10
2018-10-03T17:46:14.071Z,6.00
2018-10-03T17:48:42.239Z,6.00
2018-10-03T17:51:10.439Z,6.00
2018-10-03T17:53:38.547Z,6.10
2018-10-03T17:56:06.816Z,6.10
2018-10-03T17:58:34.958Z,6.00
2018-10-03T18:01:03.139Z,6.00
2018-10-03T18:03:31.770Z,6.00
2018-10-03T18:05:59.938Z,5.80
2018-10-03T18:08:27.964Z,5.90
2018-10-03T18:10:56.104Z,5.90
2018-10-03T18:13:24.361Z,6.00
2018-10-03T18:15:52.647Z,5.90
2018-10-03T18:18:20.782Z,6.00
2018-10-03T18:20:49.331Z,5.90
2018-10-03T18:23:17.569Z,5.90
2018-10-03T18:25:45.931Z,5.90
2018-10-03T18:28:14.725Z,6.00
2018-10-03T18:30:42.817Z,5.90
2018-10-03T18:33:12.475Z,5.90
2018-10-03T18:35:40.546Z,6.00
2018-10-03T18:38:08.674Z,5.90
2018-10-03T18:40:36.777Z,5.80
2018-10-03T18:43:04.966Z,5.80
2018-10-03T18:45:33.131Z,5.80
2018-10-03T18:48:01.631Z,5.90
2018-10-03T18:50:29.751Z,5.80
2018-10-03T18:52:57.950Z,5.80
2018-10-03T18:55:26.141Z,5.90
2018-10-03T18:57:54.531Z,5.80
2018-10-03T19:00:22.606Z,5.70
2018-10-03T19:02:51.680Z,5.60
2018-10-03T19:05:19.836Z,5.60
2018-10-03T19:07:48.582Z,5.50
2018-10-03T19:10:16.663Z,5.40
2018-10-03T19:12:44.739Z,5.40
2018-10-03T19:15:13.054Z,5.50
2018-10-03T19:17:41.254Z,5.50
2018-10-03T19:20:09.451Z,5.40
2018-10-03T19:22:37.668Z,5.40
2018-10-03T19:25:06.528Z,5.30
2018-10-03T19:27:34.642Z,5.20
2018-10-03T19:30:02.723Z,5.20
2018-10-03T19:32:32.024Z,5.20
2018-10-03T19:35:00.111Z,5.00
2018-10-03T19:37:28.242Z,5.00
2018-10-03T19:39:56.472Z,5.00
2018-10-03T19:45:09.355Z,5.00
2018-10-03T19:47:37.563Z,5.10
2018-10-03T19:50:05.878Z,5.10
2018-10-03T19:52:34.122Z,5.20
2018-10-03T19:55:02.310Z,5.10
2018-10-03T19:57:31.275Z,5.10
2018-10-03T19:59:59.752Z,5.10
2018-10-03T20:02:27.902Z,5.20
2018-10-03T20:05:00.098Z,5.00
2018-10-03T20:07:28.297Z,5.00
2018-10-03T20:09:56.591Z,4.80
2018-10-03T20:12:24.882Z,4.90
2018-10-03T20:14:53.126Z,4.90
2018-10-03T20:17:21.339Z,4.80
2018-10-03T20:19:49.448Z,4.90
2018-10-03T20:22:17.629Z,5.00
2018-10-03T20:24:45.777Z,4.90
2018-10-03T20:27:14.090Z,4.80
2018-10-03T20:29:42.199Z,4.90
2018-10-03T20:32:10.328Z,4.90
2018-10-03T20:34:38.627Z,4.90
2018-10-03T20:37:07.546Z,5.00
2018-10-03T20:39:36.603Z,5.00
2018-10-03T20:42:04.773Z,5.10
2018-10-03T20:44:32.979Z,5.00
2018-10-03T20:47:01.292Z,5.10
2018-10-03T20:49:29.851Z,5.10
2018-10-03T20:51:58.036Z,5.10
2018-10-03T20:54:26.774Z,5.10
2018-10-03T20:56:54.953Z,5.10
2018-10-03T20:59:23.912Z,5.20
2018-10-03T21:01:52.179Z,5.20
2018-10-03T21:04:20.419Z,5.20
2018-10-03T21:06:48.696Z,5.30
2018-10-03T21:09:17.005Z,5.30
2018-10-03T21:11:46.031Z,5.30
2018-10-03T21:14:14.209Z,5.30
2018-10-03T21:16:42.362Z,5.30
2018-10-03T21:19:10.523Z,5.30
2018-10-03T21:21:38.765Z,5.30
2018-10-03T21:24:07.701Z,5.30
2018-10-03T21:26:35.864Z,5.40
2018-10-03T21:29:04.073Z,5.50
2018-10-03T21:31:32.213Z,5.70
2018-10-03T21:34:00.527Z,5.80
2018-10-03T21:36:28.679Z,6.10
2018-10-03T21:38:56.813Z,6.20
2018-10-03T21:41:24.975Z,6.20
2018-10-03T21:43:53.073Z,6.10
2018-10-03T21:46:21.274Z,6.00
2018-10-03T21:48:50.452Z,6.00
2018-10-03T21:51:19.615Z,5.90
2018-10-03T21:53:47.759Z,5.90
2018-10-03T21:56:15.985Z,5.90
2018-10-03T21:58:44.123Z,5.90
2018-10-03T22:01:13.079Z,5.90
2018-10-03T22:03:41.382Z,6.10
2018-10-03T22:06:09.584Z,6.30
2018-10-03T22:08:37.783Z,6.20
2018-10-03T22:11:05.956Z,6.30
2018-10-03T22:13:34.164Z,6.30
2018-10-03T22:16:02.294Z,6.30
2018-10-03T22:18:30.531Z,6.30
2018-10-03T22:20:58.851Z,6.20
2018-10-03T22:23:27.120Z,6.20
2018-10-03T22:25:55.440Z,6.10
2018-10-03T22:28:23.628Z,6.10
2018-10-03T22:30:51.795Z,6.10
2018-10-03T22:33:20.017Z,6.10
2018-10-03T22:35:48.281Z,6.20
2018-10-03T22:38:16.687Z,6.10
2018-10-03T22:40:44.913Z,6.20
2018-10-03T22:43:13.156Z,6.20
2018-10-03T22:45:41.339Z,6.30
2018-10-03T22:48:09.495Z,6.30
2018-10-03T22:50:37.670Z,6.40
2018-10-03T22:53:05.793Z,6.50
2018-10-03T22:55:33.910Z,6.40
2018-10-03T22:58:01.996Z,6.40
2018-10-03T23:00:30.155Z,6.40
2018-10-03T23:02:58.283Z,6.50
2018-10-03T23:05:26.459Z,6.40
2018-10-03T23:07:55.335Z,6.30
2018-10-03T23:10:23.548Z,6.30
2018-10-03T23:12:51.736Z,6.40
2018-10-03T23:15:19.915Z,6.40
2018-10-03T23:17:48.210Z,6.40
2018-10-03T23:20:16.410Z,6.40
2018-10-03T23:22:44.650Z,6.40
2018-10-03T23:25:12.779Z,6.30
2018-10-03T23:27:40.997Z,6.40
2018-10-03T23:30:09.360Z,6.30
2018-10-03T23:32:37.567Z,6.20
2018-10-03T23:35:05.783Z,6.20
2018-10-03T23:37:34.007Z,6.20
2018-10-03T23:40:02.218Z,6.20
2018-10-03T23:42:30.407Z,6.20
2018-10-03T23:44:58.628Z,6.20
2018-10-03T23:47:26.771Z,6.20
2018-10-03T23:49:54.909Z,6.20
2018-10-03T23:52:23.041Z,6.20
2018-10-03T23:54:51.201Z,6.10
2018-10-03T23:57:19.488Z,6.20
2018-10-03T23:59:47.571Z,6.20
